sensor_id;sensor_type;location;lat;lon;timestamp;P1;durP1;ratioP1;P2;durP2;ratioP2
37527;SDS011;23372;52.050;4.810;2024-01-30T00:01:18;28.53;;;19.20;;
37527;SDS011;23372;52.050;4.810;2024-01-30T00:03:44;29.20;;;19.13;;
37527;SDS011;23372;52.050;4.810;2024-01-30T00:06:10;29.83;;;18.27;;
37527;SDS011;23372;52.050;4.810;2024-01-30T00:08:37;28.83;;;19.37;;
37527;SDS011;23372;52.050;4.810;2024-01-30T00:11:02;31.03;;;18.73;;
37527;SDS011;23372;52.050;4.810;2024-01-30T00:13:28;29.07;;;17.90;;
37527;SDS011;23372;52.050;4.810;2024-01-30T00:15:53;29.13;;;17.67;;
37527;SDS011;23372;52.050;4.810;2024-01-30T00:18:19;25.50;;;17.00;;
37527;SDS011;23372;52.050;4.810;2024-01-30T00:20:45;26.60;;;17.30;;
37527;SDS011;23372;52.050;4.810;2024-01-30T00:23:11;30.30;;;18.73;;
37527;SDS011;23372;52.050;4.810;2024-01-30T00:25:36;30.70;;;19.07;;
37527;SDS011;23372;52.050;4.810;2024-01-30T00:28:02;29.87;;;19.70;;
37527;SDS011;23372;52.050;4.810;2024-01-30T00:30:27;34.17;;;19.97;;
37527;SDS011;23372;52.050;4.810;2024-01-30T00:32:53;30.87;;;19.37;;
37527;SDS011;23372;52.050;4.810;2024-01-30T00:35:19;31.57;;;19.27;;
37527;SDS011;23372;52.050;4.810;2024-01-30T00:37:45;30.93;;;19.10;;
37527;SDS011;23372;52.050;4.810;2024-01-30T00:40:10;33.70;;;19.40;;
37527;SDS011;23372;52.050;4.810;2024-01-30T00:42:40;31.97;;;19.00;;
37527;SDS011;23372;52.050;4.810;2024-01-30T00:45:11;26.10;;;17.47;;
37527;SDS011;23372;52.050;4.810;2024-01-30T00:47:40;31.50;;;19.17;;
37527;SDS011;23372;52.050;4.810;2024-01-30T00:50:05;25.90;;;16.83;;
37527;SDS011;23372;52.050;4.810;2024-01-30T00:52:31;31.50;;;18.07;;
37527;SDS011;23372;52.050;4.810;2024-01-30T00:54:58;30.87;;;17.57;;
37527;SDS011;23372;52.050;4.810;2024-01-30T00:57:24;29.07;;;17.63;;
37527;SDS011;23372;52.050;4.810;2024-01-30T00:59:49;27.10;;;17.40;;
37527;SDS011;23372;52.050;4.810;2024-01-30T01:02:15;24.90;;;17.37;;
37527;SDS011;23372;52.050;4.810;2024-01-30T01:04:42;27.30;;;17.20;;
37527;SDS011;23372;52.050;4.810;2024-01-30T01:07:08;28.07;;;15.67;;
37527;SDS011;23372;52.050;4.810;2024-01-30T01:09:33;24.63;;;17.23;;
37527;SDS011;23372;52.050;4.810;2024-01-30T01:11:59;26.83;;;16.53;;
37527;SDS011;23372;52.050;4.810;2024-01-30T01:14:24;27.43;;;17.53;;
37527;SDS011;23372;52.050;4.810;2024-01-30T01:16:50;29.63;;;17.63;;
37527;SDS011;23372;52.050;4.810;2024-01-30T01:19:16;28.90;;;17.37;;
37527;SDS011;23372;52.050;4.810;2024-01-30T01:21:41;28.17;;;16.33;;
37527;SDS011;23372;52.050;4.810;2024-01-30T01:24:07;25.70;;;15.97;;
37527;SDS011;23372;52.050;4.810;2024-01-30T01:26:32;25.83;;;15.97;;
37527;SDS011;23372;52.050;4.810;2024-01-30T01:28:58;28.60;;;17.00;;
37527;SDS011;23372;52.050;4.810;2024-01-30T01:31:24;29.47;;;15.67;;
37527;SDS011;23372;52.050;4.810;2024-01-30T01:33:50;24.03;;;15.80;;
37527;SDS011;23372;52.050;4.810;2024-01-30T01:36:15;28.63;;;16.53;;
37527;SDS011;23372;52.050;4.810;2024-01-30T01:38:41;25.53;;;15.80;;
37527;SDS011;23372;52.050;4.810;2024-01-30T01:41:06;23.07;;;14.70;;
37527;SDS011;23372;52.050;4.810;2024-01-30T01:43:32;26.27;;;15.50;;
37527;SDS011;23372;52.050;4.810;2024-01-30T01:45:57;27.67;;;17.33;;
37527;SDS011;23372;52.050;4.810;2024-01-30T01:48:23;26.60;;;16.03;;
37527;SDS011;23372;52.050;4.810;2024-01-30T01:50:49;29.83;;;16.63;;
37527;SDS011;23372;52.050;4.810;2024-01-30T01:53:15;24.80;;;15.60;;
37527;SDS011;23372;52.050;4.810;2024-01-30T01:55:41;28.87;;;15.70;;
37527;SDS011;23372;52.050;4.810;2024-01-30T01:58:07;25.33;;;15.70;;
37527;SDS011;23372;52.050;4.810;2024-01-30T02:00:34;27.10;;;15.57;;
37527;SDS011;23372;52.050;4.810;2024-01-30T02:03:04;31.73;;;16.10;;
37527;SDS011;23372;52.050;4.810;2024-01-30T02:05:31;24.93;;;16.20;;
37527;SDS011;23372;52.050;4.810;2024-01-30T02:07:57;23.63;;;15.13;;
37527;SDS011;23372;52.050;4.810;2024-01-30T02:10:23;26.47;;;15.60;;
37527;SDS011;23372;52.050;4.810;2024-01-30T02:12:48;27.00;;;16.37;;
37527;SDS011;23372;52.050;4.810;2024-01-30T02:15:15;28.87;;;16.77;;
37527;SDS011;23372;52.050;4.810;2024-01-30T02:17:40;26.83;;;16.57;;
37527;SDS011;23372;52.050;4.810;2024-01-30T02:20:06;23.83;;;16.03;;
37527;SDS011;23372;52.050;4.810;2024-01-30T02:22:32;22.80;;;15.80;;
37527;SDS011;23372;52.050;4.810;2024-01-30T02:24:59;21.30;;;14.70;;
37527;SDS011;23372;52.050;4.810;2024-01-30T02:27:24;24.57;;;15.70;;
37527;SDS011;23372;52.050;4.810;2024-01-30T02:29:50;26.30;;;16.57;;
37527;SDS011;23372;52.050;4.810;2024-01-30T02:32:16;26.93;;;16.77;;
37527;SDS011;23372;52.050;4.810;2024-01-30T02:34:41;22.70;;;15.27;;
37527;SDS011;23372;52.050;4.810;2024-01-30T02:37:07;26.70;;;15.90;;
37527;SDS011;23372;52.050;4.810;2024-01-30T02:39:33;26.00;;;15.40;;
37527;SDS011;23372;52.050;4.810;2024-01-30T02:41:58;32.13;;;16.60;;
37527;SDS011;23372;52.050;4.810;2024-01-30T02:44:24;23.10;;;14.83;;
37527;SDS011;23372;52.050;4.810;2024-01-30T02:46:49;23.93;;;15.43;;
37527;SDS011;23372;52.050;4.810;2024-01-30T02:49:15;24.37;;;15.00;;
37527;SDS011;23372;52.050;4.810;2024-01-30T02:51:41;25.60;;;16.40;;
37527;SDS011;23372;52.050;4.810;2024-01-30T02:54:06;22.77;;;14.80;;
37527;SDS011;23372;52.050;4.810;2024-01-30T02:56:32;22.90;;;14.97;;
37527;SDS011;23372;52.050;4.810;2024-01-30T02:58:57;26.50;;;17.00;;
37527;SDS011;23372;52.050;4.810;2024-01-30T03:01:23;27.90;;;16.53;;
37527;SDS011;23372;52.050;4.810;2024-01-30T03:03:49;26.43;;;15.07;;
37527;SDS011;23372;52.050;4.810;2024-01-30T03:06:15;25.57;;;15.03;;
37527;SDS011;23372;52.050;4.810;2024-01-30T03:08:42;26.40;;;15.43;;
37527;SDS011;23372;52.050;4.810;2024-01-30T03:11:08;23.40;;;14.93;;
37527;SDS011;23372;52.050;4.810;2024-01-30T03:13:33;27.30;;;15.70;;
37527;SDS011;23372;52.050;4.810;2024-01-30T03:15:59;24.33;;;15.53;;
37527;SDS011;23372;52.050;4.810;2024-01-30T03:18:24;23.97;;;15.50;;
37527;SDS011;23372;52.050;4.810;2024-01-30T03:20:50;27.10;;;14.53;;
37527;SDS011;23372;52.050;4.810;2024-01-30T03:23:15;22.33;;;14.33;;
37527;SDS011;23372;52.050;4.810;2024-01-30T03:25:41;26.13;;;15.40;;
37527;SDS011;23372;52.050;4.810;2024-01-30T03:28:06;20.63;;;14.47;;
37527;SDS011;23372;52.050;4.810;2024-01-30T03:30:33;23.70;;;15.37;;
37527;SDS011;23372;52.050;4.810;2024-01-30T03:32:59;22.00;;;14.20;;
37527;SDS011;23372;52.050;4.810;2024-01-30T03:35:25;21.30;;;14.13;;
37527;SDS011;23372;52.050;4.810;2024-01-30T03:37:50;23.67;;;14.33;;
37527;SDS011;23372;52.050;4.810;2024-01-30T03:40:16;23.70;;;14.23;;
37527;SDS011;23372;52.050;4.810;2024-01-30T03:42:41;23.60;;;15.07;;
37527;SDS011;23372;52.050;4.810;2024-01-30T03:45:07;24.10;;;15.17;;
37527;SDS011;23372;52.050;4.810;2024-01-30T03:47:33;23.97;;;14.57;;
37527;SDS011;23372;52.050;4.810;2024-01-30T03:49:58;23.67;;;13.93;;
37527;SDS011;23372;52.050;4.810;2024-01-30T03:52:24;22.13;;;14.43;;
37527;SDS011;23372;52.050;4.810;2024-01-30T03:54:49;20.87;;;14.70;;
37527;SDS011;23372;52.050;4.810;2024-01-30T03:57:15;22.77;;;14.10;;
37527;SDS011;23372;52.050;4.810;2024-01-30T03:59:44;25.37;;;14.50;;
37527;SDS011;23372;52.050;4.810;2024-01-30T04:02:10;24.07;;;15.03;;
37527;SDS011;23372;52.050;4.810;2024-01-30T04:04:36;23.83;;;14.70;;
37527;SDS011;23372;52.050;4.810;2024-01-30T04:07:02;22.57;;;13.93;;
37527;SDS011;23372;52.050;4.810;2024-01-30T04:09:28;21.47;;;14.17;;
37527;SDS011;23372;52.050;4.810;2024-01-30T04:11:53;24.77;;;14.57;;
37527;SDS011;23372;52.050;4.810;2024-01-30T04:14:19;26.87;;;14.90;;
37527;SDS011;23372;52.050;4.810;2024-01-30T04:16:44;22.03;;;14.30;;
37527;SDS011;23372;52.050;4.810;2024-01-30T04:19:10;25.37;;;15.93;;
37527;SDS011;23372;52.050;4.810;2024-01-30T04:21:36;25.30;;;15.17;;
37527;SDS011;23372;52.050;4.810;2024-01-30T04:24:01;24.10;;;15.13;;
37527;SDS011;23372;52.050;4.810;2024-01-30T04:26:27;27.30;;;14.97;;
37527;SDS011;23372;52.050;4.810;2024-01-30T04:28:52;23.77;;;14.93;;
37527;SDS011;23372;52.050;4.810;2024-01-30T04:31:18;23.00;;;15.83;;
37527;SDS011;23372;52.050;4.810;2024-01-30T04:33:43;30.10;;;15.60;;
37527;SDS011;23372;52.050;4.810;2024-01-30T04:36:09;26.50;;;15.20;;
37527;SDS011;23372;52.050;4.810;2024-01-30T04:38:40;24.30;;;14.47;;
37527;SDS011;23372;52.050;4.810;2024-01-30T04:41:06;28.07;;;15.30;;
37527;SDS011;23372;52.050;4.810;2024-01-30T04:43:32;22.27;;;14.43;;
37527;SDS011;23372;52.050;4.810;2024-01-30T04:45:57;26.80;;;15.73;;
37527;SDS011;23372;52.050;4.810;2024-01-30T04:48:23;24.53;;;14.60;;
37527;SDS011;23372;52.050;4.810;2024-01-30T04:50:48;23.87;;;16.03;;
37527;SDS011;23372;52.050;4.810;2024-01-30T04:53:14;24.20;;;14.67;;
37527;SDS011;23372;52.050;4.810;2024-01-30T04:55:39;26.80;;;15.83;;
37527;SDS011;23372;52.050;4.810;2024-01-30T04:58:05;28.23;;;15.50;;
37527;SDS011;23372;52.050;4.810;2024-01-30T05:00:31;24.47;;;15.37;;
37527;SDS011;23372;52.050;4.810;2024-01-30T05:02:57;23.20;;;14.57;;
37527;SDS011;23372;52.050;4.810;2024-01-30T05:05:22;28.63;;;16.70;;
37527;SDS011;23372;52.050;4.810;2024-01-30T05:07:48;28.90;;;16.73;;
37527;SDS011;23372;52.050;4.810;2024-01-30T05:10:14;25.97;;;14.83;;
37527;SDS011;23372;52.050;4.810;2024-01-30T05:12:39;26.93;;;16.30;;
37527;SDS011;23372;52.050;4.810;2024-01-30T05:15:05;27.17;;;16.13;;
37527;SDS011;23372;52.050;4.810;2024-01-30T05:17:31;27.60;;;15.70;;
37527;SDS011;23372;52.050;4.810;2024-01-30T05:19:57;26.30;;;15.07;;
37527;SDS011;23372;52.050;4.810;2024-01-30T05:22:22;30.03;;;15.23;;
37527;SDS011;23372;52.050;4.810;2024-01-30T05:24:48;25.33;;;15.93;;
37527;SDS011;23372;52.050;4.810;2024-01-30T05:27:14;30.50;;;15.63;;
37527;SDS011;23372;52.050;4.810;2024-01-30T05:29:39;26.87;;;16.10;;
37527;SDS011;23372;52.050;4.810;2024-01-30T05:32:06;25.33;;;16.00;;
37527;SDS011;23372;52.050;4.810;2024-01-30T05:34:31;23.97;;;15.17;;
37527;SDS011;23372;52.050;4.810;2024-01-30T05:36:57;24.33;;;15.53;;
37527;SDS011;23372;52.050;4.810;2024-01-30T05:39:23;22.43;;;13.93;;
37527;SDS011;23372;52.050;4.810;2024-01-30T05:41:48;26.83;;;15.67;;
37527;SDS011;23372;52.050;4.810;2024-01-30T05:44:14;26.27;;;15.37;;
37527;SDS011;23372;52.050;4.810;2024-01-30T05:46:39;25.57;;;15.53;;
37527;SDS011;23372;52.050;4.810;2024-01-30T05:49:05;23.20;;;14.23;;
37527;SDS011;23372;52.050;4.810;2024-01-30T05:51:31;28.57;;;15.17;;
37527;SDS011;23372;52.050;4.810;2024-01-30T05:53:56;24.57;;;14.67;;
37527;SDS011;23372;52.050;4.810;2024-01-30T05:56:22;24.43;;;15.20;;
37527;SDS011;23372;52.050;4.810;2024-01-30T05:58:47;24.20;;;14.60;;
37527;SDS011;23372;52.050;4.810;2024-01-30T06:01:15;24.00;;;14.03;;
37527;SDS011;23372;52.050;4.810;2024-01-30T06:03:40;21.27;;;14.83;;
37527;SDS011;23372;52.050;4.810;2024-01-30T06:06:08;24.37;;;14.60;;
37527;SDS011;23372;52.050;4.810;2024-01-30T06:08:33;26.37;;;16.50;;
37527;SDS011;23372;52.050;4.810;2024-01-30T06:10:59;24.40;;;14.53;;
37527;SDS011;23372;52.050;4.810;2024-01-30T06:13:25;22.93;;;14.60;;
37527;SDS011;23372;52.050;4.810;2024-01-30T06:15:51;26.00;;;15.47;;
37527;SDS011;23372;52.050;4.810;2024-01-30T06:18:17;24.57;;;14.30;;
37527;SDS011;23372;52.050;4.810;2024-01-30T06:20:42;25.30;;;15.70;;
37527;SDS011;23372;52.050;4.810;2024-01-30T06:23:08;22.03;;;15.03;;
37527;SDS011;23372;52.050;4.810;2024-01-30T06:25:34;23.73;;;13.97;;
37527;SDS011;23372;52.050;4.810;2024-01-30T06:27:59;24.43;;;15.00;;
37527;SDS011;23372;52.050;4.810;2024-01-30T06:30:25;25.13;;;14.97;;
37527;SDS011;23372;52.050;4.810;2024-01-30T06:32:50;27.67;;;15.80;;
37527;SDS011;23372;52.050;4.810;2024-01-30T06:35:16;26.57;;;14.27;;
37527;SDS011;23372;52.050;4.810;2024-01-30T06:37:42;23.93;;;15.10;;
37527;SDS011;23372;52.050;4.810;2024-01-30T06:40:08;24.37;;;14.53;;
37527;SDS011;23372;52.050;4.810;2024-01-30T06:42:34;28.00;;;14.67;;
37527;SDS011;23372;52.050;4.810;2024-01-30T06:44:59;22.27;;;14.30;;
37527;SDS011;23372;52.050;4.810;2024-01-30T06:47:25;23.90;;;14.70;;
37527;SDS011;23372;52.050;4.810;2024-01-30T06:49:50;24.67;;;14.83;;
37527;SDS011;23372;52.050;4.810;2024-01-30T06:52:16;22.67;;;14.70;;
37527;SDS011;23372;52.050;4.810;2024-01-30T06:54:42;23.93;;;14.87;;
37527;SDS011;23372;52.050;4.810;2024-01-30T06:57:07;20.47;;;13.83;;
37527;SDS011;23372;52.050;4.810;2024-01-30T06:59:36;23.97;;;13.97;;
37527;SDS011;23372;52.050;4.810;2024-01-30T07:02:02;23.10;;;13.60;;
37527;SDS011;23372;52.050;4.810;2024-01-30T07:04:28;24.53;;;14.10;;
37527;SDS011;23372;52.050;4.810;2024-01-30T07:06:53;26.43;;;14.30;;
37527;SDS011;23372;52.050;4.810;2024-01-30T07:09:19;26.33;;;13.90;;
37527;SDS011;23372;52.050;4.810;2024-01-30T07:11:44;25.23;;;15.00;;
37527;SDS011;23372;52.050;4.810;2024-01-30T07:14:10;23.83;;;13.57;;
37527;SDS011;23372;52.050;4.810;2024-01-30T07:16:35;26.50;;;15.03;;
37527;SDS011;23372;52.050;4.810;2024-01-30T07:19:01;22.00;;;13.77;;
37527;SDS011;23372;52.050;4.810;2024-01-30T07:21:27;22.70;;;14.07;;
37527;SDS011;23372;52.050;4.810;2024-01-30T07:23:56;21.60;;;14.40;;
37527;SDS011;23372;52.050;4.810;2024-01-30T07:26:22;22.57;;;13.40;;
37527;SDS011;23372;52.050;4.810;2024-01-30T07:28:47;26.73;;;13.50;;
37527;SDS011;23372;52.050;4.810;2024-01-30T07:31:13;29.63;;;14.73;;
37527;SDS011;23372;52.050;4.810;2024-01-30T07:33:39;27.53;;;17.93;;
37527;SDS011;23372;52.050;4.810;2024-01-30T07:36:04;27.83;;;14.57;;
37527;SDS011;23372;52.050;4.810;2024-01-30T07:38:33;26.20;;;14.10;;
37527;SDS011;23372;52.050;4.810;2024-01-30T07:40:58;24.20;;;14.37;;
37527;SDS011;23372;52.050;4.810;2024-01-30T07:43:24;26.20;;;14.27;;
37527;SDS011;23372;52.050;4.810;2024-01-30T07:45:49;20.07;;;13.27;;
37527;SDS011;23372;52.050;4.810;2024-01-30T07:48:15;27.13;;;16.23;;
37527;SDS011;23372;52.050;4.810;2024-01-30T07:50:41;21.67;;;14.10;;
37527;SDS011;23372;52.050;4.810;2024-01-30T07:53:06;24.63;;;13.43;;
37527;SDS011;23372;52.050;4.810;2024-01-30T07:55:32;25.57;;;13.57;;
37527;SDS011;23372;52.050;4.810;2024-01-30T07:57:58;23.87;;;14.00;;
37527;SDS011;23372;52.050;4.810;2024-01-30T08:00:26;24.43;;;14.33;;
37527;SDS011;23372;52.050;4.810;2024-01-30T08:02:54;21.80;;;13.57;;
37527;SDS011;23372;52.050;4.810;2024-01-30T08:05:20;23.53;;;14.13;;
37527;SDS011;23372;52.050;4.810;2024-01-30T08:07:47;23.17;;;13.33;;
37527;SDS011;23372;52.050;4.810;2024-01-30T08:10:14;24.23;;;13.33;;
37527;SDS011;23372;52.050;4.810;2024-01-30T08:12:39;31.87;;;13.70;;
37527;SDS011;23372;52.050;4.810;2024-01-30T08:15:05;23.97;;;11.73;;
37527;SDS011;23372;52.050;4.810;2024-01-30T08:17:32;24.20;;;12.47;;
37527;SDS011;23372;52.050;4.810;2024-01-30T08:19:58;22.77;;;13.77;;
37527;SDS011;23372;52.050;4.810;2024-01-30T08:22:23;26.40;;;12.40;;
37527;SDS011;23372;52.050;4.810;2024-01-30T08:24:49;23.87;;;13.57;;
37527;SDS011;23372;52.050;4.810;2024-01-30T08:27:15;21.73;;;12.83;;
37527;SDS011;23372;52.050;4.810;2024-01-30T08:29:40;24.13;;;13.13;;
37527;SDS011;23372;52.050;4.810;2024-01-30T08:32:06;28.00;;;13.20;;
37527;SDS011;23372;52.050;4.810;2024-01-30T08:34:31;26.13;;;12.47;;
37527;SDS011;23372;52.050;4.810;2024-01-30T08:36:57;25.27;;;12.70;;
37527;SDS011;23372;52.050;4.810;2024-01-30T08:39:23;24.83;;;13.43;;
37527;SDS011;23372;52.050;4.810;2024-01-30T08:41:48;20.77;;;11.43;;
37527;SDS011;23372;52.050;4.810;2024-01-30T08:44:14;22.90;;;11.93;;
37527;SDS011;23372;52.050;4.810;2024-01-30T08:46:39;21.83;;;12.10;;
37527;SDS011;23372;52.050;4.810;2024-01-30T08:49:05;20.10;;;11.70;;
37527;SDS011;23372;52.050;4.810;2024-01-30T08:51:30;19.50;;;11.23;;
37527;SDS011;23372;52.050;4.810;2024-01-30T08:53:56;22.80;;;11.00;;
37527;SDS011;23372;52.050;4.810;2024-01-30T08:56:21;22.23;;;11.93;;
37527;SDS011;23372;52.050;4.810;2024-01-30T08:58:47;27.37;;;12.00;;
37527;SDS011;23372;52.050;4.810;2024-01-30T09:01:13;21.30;;;10.73;;
37527;SDS011;23372;52.050;4.810;2024-01-30T09:03:39;20.30;;;11.47;;
37527;SDS011;23372;52.050;4.810;2024-01-30T09:06:09;18.97;;;11.17;;
37527;SDS011;23372;52.050;4.810;2024-01-30T09:08:35;22.90;;;11.40;;
37527;SDS011;23372;52.050;4.810;2024-01-30T09:11:00;22.97;;;11.50;;
37527;SDS011;23372;52.050;4.810;2024-01-30T09:13:26;20.80;;;10.33;;
37527;SDS011;23372;52.050;4.810;2024-01-30T09:15:51;19.57;;;11.00;;
37527;SDS011;23372;52.050;4.810;2024-01-30T09:18:18;24.63;;;11.50;;
37527;SDS011;23372;52.050;4.810;2024-01-30T09:20:43;20.80;;;10.97;;
37527;SDS011;23372;52.050;4.810;2024-01-30T09:23:12;18.53;;;10.93;;
37527;SDS011;23372;52.050;4.810;2024-01-30T09:25:38;16.00;;;10.33;;
37527;SDS011;23372;52.050;4.810;2024-01-30T09:28:04;22.23;;;11.47;;
37527;SDS011;23372;52.050;4.810;2024-01-30T09:30:30;20.20;;;10.80;;
37527;SDS011;23372;52.050;4.810;2024-01-30T09:32:55;15.70;;;9.50;;
37527;SDS011;23372;52.050;4.810;2024-01-30T09:35:21;19.63;;;10.57;;
37527;SDS011;23372;52.050;4.810;2024-01-30T09:37:46;25.53;;;10.97;;
37527;SDS011;23372;52.050;4.810;2024-01-30T09:40:13;17.03;;;10.90;;
37527;SDS011;23372;52.050;4.810;2024-01-30T09:42:39;21.17;;;11.13;;
37527;SDS011;23372;52.050;4.810;2024-01-30T09:45:07;25.17;;;11.40;;
37527;SDS011;23372;52.050;4.810;2024-01-30T09:47:41;16.83;;;9.83;;
37527;SDS011;23372;52.050;4.810;2024-01-30T09:50:10;19.63;;;9.93;;
37527;SDS011;23372;52.050;4.810;2024-01-30T09:52:37;20.17;;;9.90;;
37527;SDS011;23372;52.050;4.810;2024-01-30T09:55:03;17.70;;;9.23;;
37527;SDS011;23372;52.050;4.810;2024-01-30T09:57:29;18.33;;;9.73;;
37527;SDS011;23372;52.050;4.810;2024-01-30T09:59:55;23.00;;;10.53;;
37527;SDS011;23372;52.050;4.810;2024-01-30T10:02:21;18.97;;;9.47;;
37527;SDS011;23372;52.050;4.810;2024-01-30T10:04:50;16.30;;;9.77;;
37527;SDS011;23372;52.050;4.810;2024-01-30T10:07:17;18.17;;;9.80;;
37527;SDS011;23372;52.050;4.810;2024-01-30T10:09:43;17.83;;;9.63;;
37527;SDS011;23372;52.050;4.810;2024-01-30T10:12:09;14.93;;;7.70;;
37527;SDS011;23372;52.050;4.810;2024-01-30T10:14:40;15.33;;;8.27;;
37527;SDS011;23372;52.050;4.810;2024-01-30T10:17:07;15.87;;;7.87;;
37527;SDS011;23372;52.050;4.810;2024-01-30T10:19:37;16.63;;;8.50;;
37527;SDS011;23372;52.050;4.810;2024-01-30T10:22:04;15.43;;;6.97;;
37527;SDS011;23372;52.050;4.810;2024-01-30T10:24:30;10.73;;;6.40;;
37527;SDS011;23372;52.050;4.810;2024-01-30T10:26:56;11.30;;;5.10;;
37527;SDS011;23372;52.050;4.810;2024-01-30T10:29:22;9.70;;;4.00;;
37527;SDS011;23372;52.050;4.810;2024-01-30T10:31:57;10.67;;;4.20;;
37527;SDS011;23372;52.050;4.810;2024-01-30T10:34:23;13.03;;;5.20;;
37527;SDS011;23372;52.050;4.810;2024-01-30T10:36:49;10.53;;;4.53;;
37527;SDS011;23372;52.050;4.810;2024-01-30T10:39:20;15.20;;;5.47;;
37527;SDS011;23372;52.050;4.810;2024-01-30T10:41:47;12.93;;;5.17;;
37527;SDS011;23372;52.050;4.810;2024-01-30T10:44:16;12.43;;;4.80;;
37527;SDS011;23372;52.050;4.810;2024-01-30T10:46:45;9.23;;;3.83;;
37527;SDS011;23372;52.050;4.810;2024-01-30T10:49:25;6.37;;;3.57;;
37527;SDS011;23372;52.050;4.810;2024-01-30T10:51:51;7.57;;;4.17;;
37527;SDS011;23372;52.050;4.810;2024-01-30T10:54:17;9.67;;;3.33;;
37527;SDS011;23372;52.050;4.810;2024-01-30T10:56:44;8.27;;;3.60;;
37527;SDS011;23372;52.050;4.810;2024-01-30T10:59:09;9.77;;;3.10;;
37527;SDS011;23372;52.050;4.810;2024-01-30T11:01:38;6.50;;;2.83;;
37527;SDS011;23372;52.050;4.810;2024-01-30T11:04:04;9.83;;;4.07;;
37527;SDS011;23372;52.050;4.810;2024-01-30T11:06:29;8.73;;;3.63;;
37527;SDS011;23372;52.050;4.810;2024-01-30T11:14:27;7.73;;;3.53;;
37527;SDS011;23372;52.050;4.810;2024-01-30T11:16:56;6.10;;;3.13;;
37527;SDS011;23372;52.050;4.810;2024-01-30T11:19:24;5.17;;;1.83;;
37527;SDS011;23372;52.050;4.810;2024-01-30T11:21:53;5.87;;;2.83;;
37527;SDS011;23372;52.050;4.810;2024-01-30T11:24:21;7.40;;;2.97;;
37527;SDS011;23372;52.050;4.810;2024-01-30T11:26:48;5.00;;;2.27;;
37527;SDS011;23372;52.050;4.810;2024-01-30T11:29:28;8.07;;;2.83;;
37527;SDS011;23372;52.050;4.810;2024-01-30T11:31:57;8.17;;;2.10;;
37527;SDS011;23372;52.050;4.810;2024-01-30T11:34:23;7.80;;;1.87;;
37527;SDS011;23372;52.050;4.810;2024-01-30T11:36:53;9.20;;;2.20;;
37527;SDS011;23372;52.050;4.810;2024-01-30T11:39:24;6.87;;;1.70;;
37527;SDS011;23372;52.050;4.810;2024-01-30T11:41:51;6.57;;;1.37;;
37527;SDS011;23372;52.050;4.810;2024-01-30T11:44:18;5.13;;;1.80;;
37527;SDS011;23372;52.050;4.810;2024-01-30T11:46:45;8.33;;;2.00;;
37527;SDS011;23372;52.050;4.810;2024-01-30T11:49:12;7.60;;;2.13;;
37527;SDS011;23372;52.050;4.810;2024-01-30T11:51:37;9.23;;;1.30;;
37527;SDS011;23372;52.050;4.810;2024-01-30T11:54:03;10.60;;;1.67;;
37527;SDS011;23372;52.050;4.810;2024-01-30T11:56:29;6.63;;;2.10;;
37527;SDS011;23372;52.050;4.810;2024-01-30T11:58:54;5.57;;;1.67;;
37527;SDS011;23372;52.050;4.810;2024-01-30T12:01:20;3.77;;;1.20;;
37527;SDS011;23372;52.050;4.810;2024-01-30T12:03:49;5.90;;;1.10;;
37527;SDS011;23372;52.050;4.810;2024-01-30T12:06:15;7.03;;;1.70;;
37527;SDS011;23372;52.050;4.810;2024-01-30T12:08:41;4.23;;;1.37;;
37527;SDS011;23372;52.050;4.810;2024-01-30T12:11:07;3.40;;;1.40;;
37527;SDS011;23372;52.050;4.810;2024-01-30T12:13:32;11.33;;;1.57;;
37527;SDS011;23372;52.050;4.810;2024-01-30T12:15:58;7.73;;;1.20;;
37527;SDS011;23372;52.050;4.810;2024-01-30T12:18:24;6.00;;;2.37;;
37527;SDS011;23372;52.050;4.810;2024-01-30T12:20:57;8.80;;;1.20;;
37527;SDS011;23372;52.050;4.810;2024-01-30T12:23:24;10.17;;;1.47;;
37527;SDS011;23372;52.050;4.810;2024-01-30T12:25:50;9.70;;;1.60;;
37527;SDS011;23372;52.050;4.810;2024-01-30T12:28:17;7.10;;;1.60;;
37527;SDS011;23372;52.050;4.810;2024-01-30T12:30:42;3.60;;;0.83;;
37527;SDS011;23372;52.050;4.810;2024-01-30T12:33:08;3.73;;;1.63;;
37527;SDS011;23372;52.050;4.810;2024-01-30T12:35:35;3.57;;;1.20;;
37527;SDS011;23372;52.050;4.810;2024-01-30T12:38:00;8.27;;;2.30;;
37527;SDS011;23372;52.050;4.810;2024-01-30T12:40:27;6.03;;;1.47;;
37527;SDS011;23372;52.050;4.810;2024-01-30T12:42:53;13.80;;;2.73;;
37527;SDS011;23372;52.050;4.810;2024-01-30T12:45:19;9.33;;;1.50;;
37527;SDS011;23372;52.050;4.810;2024-01-30T12:47:46;4.70;;;1.50;;
37527;SDS011;23372;52.050;4.810;2024-01-30T12:50:12;8.43;;;1.60;;
37527;SDS011;23372;52.050;4.810;2024-01-30T12:52:40;8.07;;;2.97;;
37527;SDS011;23372;52.050;4.810;2024-01-30T12:55:06;8.30;;;3.63;;
37527;SDS011;23372;52.050;4.810;2024-01-30T12:57:32;5.70;;;1.97;;
37527;SDS011;23372;52.050;4.810;2024-01-30T12:59:57;9.97;;;1.53;;
37527;SDS011;23372;52.050;4.810;2024-01-30T13:02:23;8.13;;;1.63;;
37527;SDS011;23372;52.050;4.810;2024-01-30T13:04:49;8.13;;;2.10;;
37527;SDS011;23372;52.050;4.810;2024-01-30T13:07:14;8.80;;;1.87;;
37527;SDS011;23372;52.050;4.810;2024-01-30T13:09:40;7.33;;;2.50;;
37527;SDS011;23372;52.050;4.810;2024-01-30T13:12:06;11.00;;;2.63;;
37527;SDS011;23372;52.050;4.810;2024-01-30T13:14:31;5.87;;;1.80;;
37527;SDS011;23372;52.050;4.810;2024-01-30T13:16:57;9.07;;;2.53;;
37527;SDS011;23372;52.050;4.810;2024-01-30T13:19:23;9.53;;;2.03;;
37527;SDS011;23372;52.050;4.810;2024-01-30T13:21:48;6.43;;;2.10;;
37527;SDS011;23372;52.050;4.810;2024-01-30T13:24:14;7.70;;;2.20;;
37527;SDS011;23372;52.050;4.810;2024-01-30T13:26:40;12.07;;;2.70;;
37527;SDS011;23372;52.050;4.810;2024-01-30T13:29:07;9.50;;;2.40;;
37527;SDS011;23372;52.050;4.810;2024-01-30T13:31:33;8.63;;;2.23;;
37527;SDS011;23372;52.050;4.810;2024-01-30T13:33:59;9.73;;;2.30;;
37527;SDS011;23372;52.050;4.810;2024-01-30T13:36:25;9.87;;;2.47;;
37527;SDS011;23372;52.050;4.810;2024-01-30T13:38:50;14.27;;;2.30;;
37527;SDS011;23372;52.050;4.810;2024-01-30T13:41:16;9.37;;;2.10;;
37527;SDS011;23372;52.050;4.810;2024-01-30T13:43:43;7.43;;;2.10;;
37527;SDS011;23372;52.050;4.810;2024-01-30T13:46:09;9.30;;;2.70;;
37527;SDS011;23372;52.050;4.810;2024-01-30T13:48:35;6.30;;;2.10;;
37527;SDS011;23372;52.050;4.810;2024-01-30T13:51:00;7.87;;;1.87;;
37527;SDS011;23372;52.050;4.810;2024-01-30T13:53:26;6.33;;;2.10;;
37527;SDS011;23372;52.050;4.810;2024-01-30T13:55:51;7.87;;;2.23;;
37527;SDS011;23372;52.050;4.810;2024-01-30T13:58:17;6.10;;;3.10;;
37527;SDS011;23372;52.050;4.810;2024-01-30T14:00:42;6.50;;;1.90;;
37527;SDS011;23372;52.050;4.810;2024-01-30T14:03:08;8.50;;;1.80;;
37527;SDS011;23372;52.050;4.810;2024-01-30T14:05:34;7.47;;;2.20;;
37527;SDS011;23372;52.050;4.810;2024-01-30T14:08:00;7.33;;;2.40;;
37527;SDS011;23372;52.050;4.810;2024-01-30T14:10:26;6.07;;;2.40;;
37527;SDS011;23372;52.050;4.810;2024-01-30T14:12:51;7.30;;;2.67;;
37527;SDS011;23372;52.050;4.810;2024-01-30T14:15:17;4.97;;;2.23;;
37527;SDS011;23372;52.050;4.810;2024-01-30T14:17:43;6.67;;;2.50;;
37527;SDS011;23372;52.050;4.810;2024-01-30T14:20:10;5.07;;;2.60;;
37527;SDS011;23372;52.050;4.810;2024-01-30T14:22:36;5.60;;;2.57;;
37527;SDS011;23372;52.050;4.810;2024-01-30T14:25:01;6.03;;;2.80;;
37527;SDS011;23372;52.050;4.810;2024-01-30T14:27:28;7.00;;;3.10;;